Time;durP1;ratioP1;P1;durP2;ratioP2;P2;SDS_P1;SDS_P2;PMS_P1;PMS_P2;Temp;Humidity;BMP_temperature;BMP_pressure;BME280_temperature;BME280_humidity;BME280_pressure;Samples;Min_cycle;Max_cycle;Signal;HPM_P1;HPM_P2
2022/10/18 00:02:59;;;;;;;13.98;3.45;;;;;;;15.76;94.48;101565.06;4971324;28;20105;-72
2022/10/18 00:06:03;;;;;;;10.23;2.80;;;;;;;15.80;94.36;101567.44;4970066;28;20049;-72
2022/10/18 00:09:07;;;;;;;15.88;3.67;;;;;;;15.85;94.29;101569.81;4970926;28;20045;-72
2022/10/18 00:12:10;;;;;;;12.93;3.08;;;;;;;15.91;93.92;101566.81;4969357;28;20318;-72
2022/10/18 00:15:14;;;;;;;14.70;2.78;;;;;;;15.91;93.59;101572.09;4970713;28;20399;-74
2022/10/18 00:18:18;;;;;;;18.17;3.35;;;;;;;15.87;93.61;101565.31;4971130;28;20307;-72
2022/10/18 00:21:23;;;;;;;10.63;2.50;;;;;;;15.94;93.27;101557.88;4971325;28;20054;-72
2022/10/18 00:24:27;;;;;;;18.48;3.58;;;;;;;15.89;93.20;101552.88;4970389;28;20046;-73
2022/10/18 00:27:31;;;;;;;18.48;2.90;;;;;;;15.80;93.94;101553.41;4969849;28;20096;-72
2022/10/18 00:30:36;;;;;;;10.15;3.28;;;;;;;15.82;94.16;101562.06;4970472;28;20077;-72
2022/10/18 00:33:41;;;;;;;15.85;2.72;;;;;;;15.89;93.61;101560.78;4969148;28;20042;-72
2022/10/18 00:36:45;;;;;;;16.00;3.17;;;;;;;15.84;93.41;101549.66;4970911;28;20090;-72
2022/10/18 00:39:49;;;;;;;16.15;3.00;;;;;;;15.89;93.08;101544.97;4970629;28;20057;-72
2022/10/18 00:42:52;;;;;;;14.73;3.00;;;;;;;15.83;93.49;101545.31;4971089;28;20061;-72
2022/10/18 00:45:59;;;;;;;22.48;5.22;;;;;;;15.77;94.02;101540.41;4970778;28;20114;-72
2022/10/18 00:49:10;;;;;;;15.68;3.20;;;;;;;15.65;95.16;101530.53;4970283;28;20070;-72
2022/10/18 00:52:18;;;;;;;14.95;4.18;;;;;;;15.53;96.61;101530.28;4970288;28;20620;-72
2022/10/18 00:55:21;;;;;;;13.32;2.30;;;;;;;15.56;96.27;101532.75;4968705;28;20057;-72
2022/10/18 00:58:25;;;;;;;16.00;2.85;;;;;;;15.70;95.19;101536.44;4969868;28;20081;-72
2022/10/18 01:01:29;;;;;;;17.73;3.00;;;;;;;15.74;94.73;101527.41;4969959;28;20050;-73
2022/10/18 01:04:33;;;;;;;14.88;2.97;;;;;;;15.78;94.53;101521.00;4970200;28;20042;-72
2022/10/18 01:07:46;;;;;;;12.45;2.95;;;;;;;15.80;94.16;101525.25;4970217;28;20069;-72
2022/10/18 01:11:12;;;;;;;28.55;3.28;;;;;;;15.83;94.13;101518.94;4950246;29;20062;-72
2022/10/18 01:14:32;;;;;;;12.55;2.83;;;;;;;15.76;94.23;101517.59;4963938;28;20038;-72
2022/10/18 01:17:56;;;;;;;13.35;3.40;;;;;;;15.76;94.70;101528.13;4958266;28;20142;-72
2022/10/18 01:21:24;;;;;;;19.90;3.30;;;;;;;15.71;95.26;101519.66;4969414;28;20049;-72
2022/10/18 01:24:47;;;;;;;14.23;2.97;;;;;;;15.62;95.79;101526.28;4967917;28;20041;-72
2022/10/18 01:27:57;;;;;;;;;;;;;;;15.52;97.40;101538.28;4969254;28;20142;-72
2022/10/18 01:31:20;;;;;;;17.10;4.07;;;;;;;15.44;99.23;101541.34;4969258;28;19924;-72
2022/10/18 01:34:25;;;;;;;;;;;;;;;15.50;99.32;101548.06;4969565;28;20101;-72
2022/10/18 01:37:30;;;;;;;14.43;4.00;;;;;;;15.57;98.45;101544.13;4969080;28;19942;-72
2022/10/18 01:40:35;;;;;;;10.35;3.30;;;;;;;15.68;97.12;101546.19;4969461;28;20049;-72
2022/10/18 01:43:44;;;;;;;16.80;3.92;;;;;;;15.71;96.79;101552.16;4969448;28;20122;-72
2022/10/18 01:46:50;;;;;;;14.30;4.13;;;;;;;15.65;97.68;101551.63;4968889;28;20066;-72
2022/10/18 01:50:03;;;;;;;14.63;3.15;;;;;;;15.61;98.45;101548.31;4968317;28;20097;-72
2022/10/18 01:53:21;;;;;;;11.32;3.05;;;;;;;15.72;97.36;101537.16;4969024;28;20062;-72
2022/10/18 01:56:43;;;;;;;15.82;3.88;;;;;;;15.65;97.76;101535.81;4969076;28;20092;-73
2022/10/18 02:00:30;;;;;;;15.05;4.40;;;;;;;15.68;97.88;101522.47;4968821;28;20050;-72
2022/10/18 02:03:41;;;;;;;10.82;3.60;;;;;;;15.53;99.19;101538.19;4967775;28;20065;-72
2022/10/18 02:06:48;;;;;;;9.73;3.10;;;;;;;15.49;100.00;101526.13;4967339;28;20056;-72
2022/10/18 02:10:03;;;;;;;9.48;3.05;;;;;;;15.62;99.35;101541.25;4966948;28;20304;-72
2022/10/18 02:13:08;;;;;;;10.15;3.50;;;;;;;15.68;98.34;101538.28;4969871;28;20093;-72
2022/10/18 02:16:22;;;;;;;10.50;2.80;;;;;;;15.52;100.00;101530.38;4969840;28;20178;-72
2022/10/18 02:19:31;;;;;;;7.38;2.42;;;;;;;15.57;99.80;101513.38;4968280;28;20042;-72
2022/10/18 02:22:36;;;;;;;8.18;3.28;;;;;;;15.70;98.63;101516.19;4969536;28;20155;-72
2022/10/18 02:25:41;;;;;;;6.15;2.15;;;;;;;15.75;98.05;101526.44;4957574;28;20092;-72
2022/10/18 02:28:45;;;;;;;7.47;2.15;;;;;;;15.58;99.51;101535.31;4969035;28;20053;-72
2022/10/18 02:31:57;;;;;;;3.72;1.50;;;;;;;15.53;100.00;101538.19;4968751;28;20098;-72
2022/10/18 02:35:10;;;;;;;4.38;2.17;;;;;;;15.62;100.00;101535.97;4967949;28;20127;-72
2022/10/18 02:38:16;;;;;;;10.63;1.83;;;;;;;15.67;100.00;101533.97;4964616;28;20050;-72
2022/10/18 02:41:25;;;;;;;6.10;1.52;;;;;;;15.76;99.04;101533.41;4964719;28;20458;-72
2022/10/18 02:44:28;;;;;;;8.02;2.67;;;;;;;15.80;98.53;101534.97;4966492;28;20046;-72
2022/10/18 02:47:35;;;;;;;5.88;1.70;;;;;;;15.72;99.19;101537.16;4965524;28;20053;-72
2022/10/18 02:50:39;;;;;;;5.72;1.90;;;;;;;15.77;99.26;101545.69;4966014;28;20050;-72
2022/10/18 02:53:43;;;;;;;6.00;1.70;;;;;;;15.79;99.08;101539.38;4968062;28;20154;-72
2022/10/18 02:56:49;;;;;;;8.55;1.73;;;;;;;15.88;98.22;101547.69;4947966;28;20120;-73
2022/10/18 02:59:53;;;;;;;5.47;1.70;;;;;;;15.91;97.65;101547.50;4949206;29;20123;-72
2022/10/18 03:02:56;;;;;;;5.93;1.95;;;;;;;15.73;98.81;101530.94;4939504;28;20046;-72
2022/10/18 03:06:00;;;;;;;7.07;1.65;;;;;;;15.67;99.57;101528.69;4969115;28;20058;-72
2022/10/18 03:09:05;;;;;;;8.50;1.80;;;;;;;15.69;99.96;101532.06;4967908;28;20062;-72
2022/10/18 03:12:10;;;;;;;6.72;2.55;;;;;;;15.59;100.00;101537.84;4967536;28;20173;-72
2022/10/18 03:15:13;;;;;;;7.63;1.75;;;;;;;15.63;100.00;101527.13;4968057;28;20090;-72
2022/10/18 03:18:17;;;;;;;5.00;1.65;;;;;;;15.68;100.00;101525.97;4967194;28;20050;-72
2022/10/18 03:21:20;;;;;;;5.60;1.60;;;;;;;15.82;99.92;101522.50;4956226;28;20449;-72
2022/10/18 03:24:23;;;;;;;4.22;1.83;;;;;;;15.85;99.14;101516.22;4970453;28;20138;-72
2022/10/18 03:27:26;;;;;;;;;;;;;;;15.69;100.00;101505.72;4968857;28;20070;-72
2022/10/18 03:30:30;;;;;;;3.60;1.75;;;;;;;15.67;100.00;101508.44;4971139;28;19921;-72
2022/10/18 03:33:34;;;;;;;7.18;1.92;;;;;;;15.76;100.00;101505.28;4966910;28;20053;-72
2022/10/18 03:36:43;;;;;;;3.90;1.33;;;;;;;15.77;99.53;101498.22;4968519;28;20189;-72
2022/10/18 03:39:47;;;;;;;7.90;1.48;;;;;;;15.74;99.88;101496.59;4967432;28;20371;-72
2022/10/18 03:42:50;;;;;;;6.60;1.63;;;;;;;15.82;98.93;101501.41;4969150;28;20050;-72
2022/10/18 03:45:55;;;;;;;6.47;1.58;;;;;;;15.85;98.14;101495.97;4971936;28;20561;-72
2022/10/18 03:48:59;;;;;;;3.40;1.20;;;;;;;15.86;97.65;101500.31;4972260;28;20691;-72
2022/10/18 03:52:03;;;;;;;7.03;1.30;;;;;;;15.81;98.08;101505.00;4970688;28;20049;-72
2022/10/18 03:55:07;;;;;;;3.85;1.10;;;;;;;15.66;99.70;101516.41;4971134;28;20105;-72
2022/10/18 03:58:10;;;;;;;3.72;1.10;;;;;;;15.54;100.00;101517.97;4974113;28;20117;-72
2022/10/18 04:01:15;;;;;;;3.17;1.33;;;;;;;15.59;100.00;101513.25;4975787;28;20061;-72
2022/10/18 04:04:22;;;;;;;4.03;1.17;;;;;;;15.68;100.00;101504.03;4975157;28;20549;-72
2022/10/18 04:07:30;;;;;;;4.43;1.58;;;;;;;15.62;100.00;101513.09;4974636;28;20140;-72
2022/10/18 04:10:38;;;;;;;8.60;2.50;;;;;;;15.64;100.00;101513.03;4963030;28;20395;-72
2022/10/18 04:13:43;;;;;;;3.25;1.10;;;;;;;15.73;100.00;101518.63;4975980;28;20162;-72
2022/10/18 04:16:47;;;;;;;5.00;1.10;;;;;;;15.81;99.68;101520.81;4964397;28;20054;-72
2022/10/18 04:19:50;;;;;;;7.80;1.20;;;;;;;15.87;99.05;101520.47;4976233;28;20097;-72
2022/10/18 04:22:56;;;;;;;10.38;1.42;;;;;;;15.77;99.17;101527.22;4975890;28;20105;-72
2022/10/18 04:25:59;;;;;;;2.50;1.30;;;;;;;15.76;99.83;101529.00;4975116;28;20497;-72
2022/10/18 04:29:03;;;;;;;5.70;1.13;;;;;;;15.74;100.00;101530.03;4975668;28;20458;-72
2022/10/18 04:32:07;;;;;;;4.53;1.00;;;;;;;15.80;99.97;101529.69;4975536;28;20062;-72
2022/10/18 04:36:02;;;;;;;2.83;0.82;;;;;;;15.90;98.81;101543.19;4975066;28;20069;-72
2022/10/18 04:39:10;;;;;;;11.00;2.55;;;;;;;15.93;98.16;101540.38;4975213;28;20058;-72
2022/10/18 04:42:14;;;;;;;5.22;1.17;;;;;;;15.93;98.06;101530.66;4974870;28;20081;-72
2022/10/18 04:45:17;;;;;;;6.72;1.73;;;;;;;15.83;99.04;101534.78;4974077;28;20081;-72
2022/10/18 04:48:21;;;;;;;7.25;1.25;;;;;;;15.75;100.00;101534.34;4975239;28;20157;-72
2022/10/18 04:51:25;;;;;;;3.60;1.10;;;;;;;15.80;99.68;101534.97;4975062;28;20061;-72
2022/10/18 04:54:28;;;;;;;4.90;1.15;;;;;;;15.89;98.86;101537.06;4962412;28;20383;-72
2022/10/18 04:57:31;;;;;;;4.80;0.90;;;;;;;15.92;98.46;101538.63;4962302;28;20090;-72
2022/10/18 05:00:37;;;;;;;4.18;0.88;;;;;;;15.92;98.25;101533.38;4974132;28;20054;-72
2022/10/18 05:03:40;;;;;;;4.00;0.90;;;;;;;15.70;99.37;101533.78;4974620;28;20054;-72
2022/10/18 05:06:45;;;;;;;4.95;1.35;;;;;;;15.65;100.00;101531.38;4962871;28;20098;-72
2022/10/18 05:09:48;;;;;;;3.58;0.90;;;;;;;15.68;100.00;101530.38;4974265;28;20065;-72
2022/10/18 05:12:51;;;;;;;3.83;1.00;;;;;;;15.78;100.00;101539.44;4974889;28;20058;-72
2022/10/18 05:15:55;;;;;;;3.63;1.17;;;;;;;15.87;99.03;101530.16;4974707;28;20072;-72
2022/10/18 05:18:59;;;;;;;5.60;1.10;;;;;;;15.90;98.46;101522.91;4974628;28;20093;-72
2022/10/18 05:22:02;;;;;;;2.80;1.05;;;;;;;15.82;98.84;101525.16;4962253;28;20077;-72
2022/10/18 05:25:07;;;;;;;2.47;1.00;;;;;;;15.86;98.85;101529.31;4974404;28;20109;-72
2022/10/18 05:28:11;;;;;;;5.20;1.08;;;;;;;15.86;98.90;101533.72;4974169;28;20049;-72
2022/10/18 05:31:15;;;;;;;2.05;0.70;;;;;;;15.82;99.29;101530.41;4974421;28;20105;-72
2022/10/18 05:34:19;;;;;;;5.00;1.10;;;;;;;15.90;98.96;101528.19;4973373;28;20045;-72
2022/10/18 05:37:23;;;;;;;4.10;1.20;;;;;;;15.85;99.52;101527.59;4973792;28;20058;-72
2022/10/18 05:40:26;;;;;;;3.83;1.05;;;;;;;15.91;99.04;101527.25;4973547;28;20422;-72
2022/10/18 05:43:29;;;;;;;3.85;1.13;;;;;;;15.92;98.95;101528.97;4973375;28;20114;-72
2022/10/18 05:46:34;;;;;;;6.68;1.38;;;;;;;15.81;99.45;101532.22;4973543;28;20070;-72
2022/10/18 05:49:37;;;;;;;5.28;1.38;;;;;;;15.73;100.00;101533.59;4961049;28;20104;-72
2022/10/18 05:52:41;;;;;;;6.38;1.20;;;;;;;15.74;100.00;101540.56;4972834;28;20466;-72
2022/10/18 05:55:45;;;;;;;6.57;1.27;;;;;;;15.80;100.00;101541.06;4974072;28;20102;-72
2022/10/18 05:58:50;;;;;;;7.13;1.13;;;;;;;15.85;99.45;101540.78;4974079;28;20120;-72
2022/10/18 06:01:54;;;;;;;5.78;1.02;;;;;;;15.89;98.94;101537.06;4960377;28;20041;-72
2022/10/18 06:04:59;;;;;;;5.10;1.20;;;;;;;15.90;98.95;101551.94;4973014;28;20049;-72
2022/10/18 06:08:07;;;;;;;5.75;1.88;;;;;;;15.93;98.93;101551.75;4973472;28;20116;-72
2022/10/18 06:11:14;;;;;;;3.80;1.40;;;;;;;15.86;99.28;101545.16;4972910;28;20045;-72
2022/10/18 06:14:19;;;;;;;8.80;1.90;;;;;;;15.69;100.00;101551.38;4973357;28;20560;-72
2022/10/18 06:17:22;;;;;;;10.63;1.60;;;;;;;15.68;100.00;101556.75;4973553;28;20085;-72
2022/10/18 06:20:26;;;;;;;7.55;1.17;;;;;;;15.80;100.00;101556.06;4975850;28;20101;-72
2022/10/18 06:23:31;;;;;;;4.35;1.10;;;;;;;15.87;100.00;101559.19;4971206;28;20105;-72
2022/10/18 06:26:36;;;;;;;4.13;1.00;;;;;;;15.92;99.90;101557.97;4958449;28;20050;-72
2022/10/18 06:29:40;;;;;;;4.88;1.02;;;;;;;15.99;99.38;101567.22;4971157;28;20149;-72
2022/10/18 06:32:43;;;;;;;8.60;1.80;;;;;;;15.84;100.00;101572.53;4971228;28;20101;-72
2022/10/18 06:35:59;;;;;;;2.47;1.02;;;;;;;15.80;100.00;101571.88;4957349;28;20524;-72
2022/10/18 06:39:02;;;;;;;3.25;1.10;;;;;;;15.87;100.00;101565.31;4973136;28;20062;-72
2022/10/18 06:42:05;;;;;;;5.93;1.20;;;;;;;15.95;100.00;101568.34;4954008;28;20094;-72
2022/10/18 06:45:14;;;;;;;3.72;1.10;;;;;;;15.96;99.78;101572.69;4968859;28;20128;-72
2022/10/18 06:48:19;;;;;;;4.25;1.20;;;;;;;15.94;100.00;101578.97;4949589;28;20077;-72
2022/10/18 06:51:23;;;;;;;6.32;1.40;;;;;;;15.95;100.00;101585.94;4972752;28;20041;-72
2022/10/18 06:54:27;;;;;;;4.40;1.00;;;;;;;15.98;99.84;101586.59;4969873;28;20466;-72
2022/10/18 06:57:31;;;;;;;4.20;1.10;;;;;;;16.01;99.66;101588.22;4972708;28;20053;-72
2022/10/18 07:00:36;;;;;;;3.35;1.20;;;;;;;16.06;99.39;101596.75;4961176;28;20069;-72
2022/10/18 07:03:39;;;;;;;3.65;1.05;;;;;;;15.94;100.00;101606.19;4957694;28;20034;-72
2022/10/18 07:06:43;;;;;;;5.97;1.20;;;;;;;15.93;100.00;101606.31;4972824;28;20513;-72
2022/10/18 07:09:46;;;;;;;3.40;1.85;;;;;;;16.02;100.00;101611.06;4958576;28;20138;-72
2022/10/18 07:12:51;;;;;;;6.03;2.97;;;;;;;16.09;99.95;101606.28;4973106;28;20133;-72
2022/10/18 07:16:07;;;;;;;2.72;1.25;;;;;;;16.10;100.00;101613.22;4959420;28;20058;-72
2022/10/18 07:19:11;;;;;;;4.50;1.10;;;;;;;16.12;100.00;101608.72;4974631;28;20060;-72
2022/10/18 07:22:14;;;;;;;6.70;1.00;;;;;;;16.15;100.00;101609.41;4976635;28;20130;-72
2022/10/18 07:25:18;;;;;;;1.70;0.60;;;;;;;16.19;99.78;101615.34;4976281;28;20034;-72
2022/10/18 07:28:24;;;;;;;4.63;0.90;;;;;;;16.17;100.00;101609.28;4962949;28;20073;-72
2022/10/18 07:31:28;;;;;;;2.75;0.80;;;;;;;16.02;100.00;101608.41;4965271;28;20572;-72
2022/10/18 07:34:32;;;;;;;3.55;1.30;;;;;;;15.95;100.00;101621.09;4975767;28;20126;-72
2022/10/18 07:37:35;;;;;;;3.30;1.50;;;;;;;15.92;100.00;101623.91;4975817;28;20050;-72
2022/10/18 07:40:39;;;;;;;3.13;0.70;;;;;;;16.08;100.00;101618.63;4973301;28;20110;-72
2022/10/18 07:43:45;;;;;;;3.13;1.02;;;;;;;16.15;100.00;101621.75;4975837;28;20160;-72
2022/10/18 07:46:48;;;;;;;8.82;0.77;;;;;;;16.23;100.00;101622.13;4976150;28;20510;-73
2022/10/18 07:49:52;;;;;;;4.35;1.05;;;;;;;16.28;100.00;101625.38;4974150;28;20069;-72
2022/10/18 07:52:55;;;;;;;8.07;1.17;;;;;;;16.34;100.00;101625.00;4977200;28;20516;-72
2022/10/18 07:56:10;;;;;;;2.40;1.05;;;;;;;16.24;100.00;101623.81;4976801;28;20077;-72
2022/10/18 07:59:15;;;;;;;1.92;0.57;;;;;;;16.23;100.00;101627.41;4976685;28;20134;-72
2022/10/18 08:02:19;;;;;;;3.40;1.42;;;;;;;16.22;100.00;101633.63;4976614;28;20509;-72
2022/10/18 08:05:25;;;;;;;2.63;0.93;;;;;;;16.01;100.00;101639.19;4973846;28;20045;-73
2022/10/18 08:08:29;;;;;;;3.13;1.40;;;;;;;16.07;100.00;101637.16;4973449;28;20077;-72
2022/10/18 08:11:33;;;;;;;3.17;1.30;;;;;;;16.02;100.00;101643.56;4974670;28;20105;-73
2022/10/18 08:14:37;;;;;;;3.92;2.22;;;;;;;15.96;100.00;101651.81;4974528;28;20061;-75
2022/10/18 08:17:45;;;;;;;4.47;1.30;;;;;;;16.14;100.00;101659.59;4970363;28;20057;-75
2022/10/18 08:21:05;;;;;;;2.58;0.93;;;;;;;16.11;100.00;101659.78;4957813;28;20160;-74
2022/10/18 08:24:30;;;;;;;5.25;1.00;;;;;;;16.09;100.00;101661.66;4969359;28;20122;-74
2022/10/18 08:27:39;;;;;;;3.38;1.15;;;;;;;16.18;100.00;101666.44;4958284;28;20054;-74
2022/10/18 08:30:43;;;;;;;1.88;0.80;;;;;;;16.25;100.00;101657.22;4970827;28;20540;-74
2022/10/18 08:33:55;;;;;;;2.13;0.93;;;;;;;16.39;100.00;101659.88;4972237;28;20502;-74
2022/10/18 08:37:09;;;;;;;3.45;0.80;;;;;;;16.39;100.00;101653.75;4974874;28;20057;-74
2022/10/18 08:40:31;;;;;;;3.60;0.90;;;;;;;16.48;100.00;101659.34;4974912;28;20122;-74
2022/10/18 08:43:57;;;;;;;2.05;0.70;;;;;;;16.59;100.00;101655.22;4961971;28;20054;-75
2022/10/18 08:47:31;;;;;;;3.05;0.60;;;;;;;16.69;100.00;101659.03;4972909;28;20570;-74
2022/10/18 08:50:49;;;;;;;3.10;0.75;;;;;;;16.55;100.00;101664.25;4974914;28;20042;-74
2022/10/18 08:54:34;;;;;;;3.92;0.75;;;;;;;16.62;100.00;101661.16;4949409;28;20147;-74
2022/10/18 08:57:56;;;;;;;1.60;0.60;;;;;;;16.81;100.00;101665.38;4896084;29;20051;-74
2022/10/18 09:01:23;;;;;;;3.15;0.63;;;;;;;16.78;100.00;101660.28;4902696;29;20717;-74
2022/10/18 09:05:07;;;;;;;4.35;0.85;;;;;;;16.83;100.00;101674.06;4955513;29;20046;-74
2022/10/18 09:09:08;;;;;;;1.83;0.40;;;;;;;16.79;100.00;101676.03;4955484;29;20077;-74
2022/10/18 09:12:55;;;;;;;3.92;1.00;;;;;;;16.62;100.00;101673.50;4955086;29;20053;-74
2022/10/18 09:16:09;;;;;;;3.70;1.23;;;;;;;16.73;100.00;101669.28;4954969;29;20513;-74
2022/10/18 09:20:11;;;;;;;2.97;0.80;;;;;;;16.93;100.00;101673.41;4943293;29;20106;-74
2022/10/18 09:23:24;;;;;;;4.57;1.20;;;;;;;17.00;100.00;101676.53;4920668;29;20122;-74
2022/10/18 09:26:37;;;;;;;5.95;0.70;;;;;;;16.95;100.00;101684.75;4953772;29;20046;-74
2022/10/18 09:29:59;;;;;;;2.20;0.70;;;;;;;17.11;100.00;101681.16;4954635;29;20518;-74
2022/10/18 09:33:37;;;;;;;5.35;0.70;;;;;;;17.12;100.00;101691.63;4954860;29;20458;-74
2022/10/18 09:36:46;;;;;;;6.10;0.60;;;;;;;17.13;100.00;101690.72;4954859;29;20110;-74
2022/10/18 09:40:08;;;;;;;5.75;0.63;;;;;;;17.11;100.00;101694.38;4941599;29;20107;-74
2022/10/18 09:43:46;;;;;;;3.88;1.15;;;;;;;17.20;100.00;101684.09;4954626;29;20054;-74
2022/10/18 09:47:20;;;;;;;5.85;0.65;;;;;;;17.35;100.00;101697.28;4954339;29;20110;-74
2022/10/18 09:50:48;;;;;;;3.17;0.80;;;;;;;17.35;100.00;101697.28;4952187;29;20495;-74
2022/10/18 09:54:13;;;;;;;2.67;0.60;;;;;;;17.24;100.00;101695.31;4953989;29;20581;-74
2022/10/18 09:57:42;;;;;;;6.15;0.93;;;;;;;17.10;100.00;101700.59;4954153;29;20065;-74
2022/10/18 10:00:55;;;;;;;4.63;0.82;;;;;;;17.06;100.00;101702.56;4954382;29;20090;-74
2022/10/18 10:04:03;;;;;;;;;;;;;;;17.17;100.00;101710.72;4954669;29;20529;-74
2022/10/18 10:07:16;;;;;;;4.40;1.10;;;;;;;17.27;100.00;101700.41;4954101;29;19921;-74
2022/10/18 10:15:26;;;;;;;2.25;0.60;;;;;;;17.46;100.00;101712.50;4953811;29;20049;-74
2022/10/18 10:19:19;;;;;;;7.97;1.08;;;;;;;17.38;100.00;101713.81;4952681;29;20081;-74
2022/10/18 10:22:55;;;;;;;2.30;0.90;;;;;;;17.55;100.00;101714.53;4962371;28;20529;-74
2022/10/18 10:26:54;;;;;;;3.53;0.93;;;;;;;17.60;100.00;101723.91;4962768;28;20101;-74
2022/10/18 10:30:39;;;;;;;3.80;0.88;;;;;;;17.57;100.00;101723.25;4968543;28;20060;-74
2022/10/18 10:34:34;;;;;;;4.50;1.10;;;;;;;17.63;100.00;101720.22;4972517;28;20050;-74
2022/10/18 10:37:57;;;;;;;5.53;1.60;;;;;;;17.55;100.00;101714.53;4966615;28;20078;-74
2022/10/18 10:41:23;;;;;;;7.18;1.67;;;;;;;17.59;100.00;101722.22;4970031;28;20046;-74
2022/10/18 10:45:16;;;;;;;8.60;2.47;;;;;;;17.66;100.00;101714.75;4971616;28;20049;-74
2022/10/18 10:49:01;;;;;;;4.68;2.95;;;;;;;17.90;100.00;101720.31;4951651;28;20395;-74
2022/10/18 10:52:44;;;;;;;7.03;3.22;;;;;;;17.92;100.00;101720.19;4956237;28;20101;-74
2022/10/18 10:56:35;;;;;;;3.45;1.25;;;;;;;17.67;97.13;101724.34;4957187;28;20541;-74
2022/10/18 11:00:02;;;;;;;5.28;2.17;;;;;;;17.82;98.30;101727.88;4957992;28;20079;-74
2022/10/18 11:03:30;;;;;;;4.90;1.63;;;;;;;17.73;97.54;101723.97;4946382;28;20399;-74
2022/10/18 11:07:13;;;;;;;3.93;1.20;;;;;;;17.82;98.72;101723.44;4957856;28;20049;-74
2022/10/18 11:10:30;;;;;;;5.90;1.00;;;;;;;17.93;98.12;101729.81;4957653;28;20510;-74
2022/10/18 11:24:16;;;;;;;1.35;0.60;;;;;;;18.29;91.98;101714.22;4884976;29;20169;-74
2022/10/18 11:37:33;;;;;;;4.75;0.73;;;;;;;18.44;92.88;101719.44;4957191;29;20050;-74
2022/10/18 11:41:51;;;;;;;2.53;0.47;;;;;;;18.45;89.30;101706.09;4956959;29;20130;-74
2022/10/18 11:46:15;;;;;;;2.35;0.63;;;;;;;18.68;89.09;101712.50;4928989;29;20058;-74
2022/10/18 11:49:47;;;;;;;3.78;0.60;;;;;;;18.70;88.21;101704.47;4937854;29;20106;-74
2022/10/18 11:53:42;;;;;;;;;;;;;;;;;;;;;
2022/10/18 12:01:48;;;;;;;3.83;0.80;;;;;;;18.98;85.47;101706.09;4937627;29;20039;-74
2022/10/18 12:04:56;;;;;;;5.22;0.80;;;;;;;18.80;84.26;101710.88;4937076;29;20587;-74
2022/10/18 12:08:12;;;;;;;4.15;0.65;;;;;;;18.87;83.77;101706.00;4937396;29;20506;-74
2022/10/18 12:11:51;;;;;;;4.38;0.73;;;;;;;18.91;84.36;101696.88;4937435;29;20510;-75
2022/10/18 12:15:49;;;;;;;;;;;;;;;;;;;;;
2022/10/18 12:24:27;;;;;;;2.83;0.50;;;;;;;18.92;83.48;101688.81;4946906;28;20090;-74
2022/10/18 12:28:58;;;;;;;8.27;0.80;;;;;;;19.08;86.08;101693.03;4949416;28;20053;-74
2022/10/18 12:41:30;;;;;;;1.10;0.40;;;;;;;18.72;81.26;101692.81;4940584;28;20391;-74
2022/10/18 12:45:43;;;;;;;2.55;0.60;;;;;;;18.99;81.37;101692.75;4946858;28;20137;-74
2022/10/18 12:50:13;;;;;;;6.00;0.75;;;;;;;19.13;82.35;101696.22;4955932;28;20050;-74
2022/10/18 12:59:25;;;;;;;7.70;0.70;;;;;;;19.46;81.20;101693.00;4861014;29;20039;-74
2022/10/18 13:03:53;;;;;;;;;;;;;;;;;;;;;
2022/10/18 13:08:40;;;;;;;;;;;;;;;;;;;;;
2022/10/18 13:21:14;;;;;;;3.72;0.93;;;;;;;18.84;79.97;101685.00;4948450;28;20415;-74
2022/10/18 13:29:45;;;;;;;5.47;0.90;;;;;;;18.78;80.38;101681.81;4955349;28;20046;-74
2022/10/18 13:43:57;;;;;;;;;;;;;;;;;;;;;
2022/10/18 13:48:21;;;;;;;4.70;0.90;;;;;;;18.48;83.44;101691.81;4908812;28;20097;-74
2022/10/18 13:57:16;;;;;;;5.30;1.30;;;;;;;18.32;81.73;101692.81;4966733;28;20077;-74
2022/10/18 14:02:21;;;;;;;;;;;;;;;;;;;;;
2022/10/18 14:21:10;;;;;;;6.55;2.22;;;;;;;18.51;86.03;101710.16;4973150;28;20086;-74
2022/10/18 14:26:00;;;;;;;;;;;;;;;;;;;;;
2022/10/18 14:36:19;;;;;;;;;;;;;;;;;;;;;
2022/10/18 14:45:58;;;;;;;4.40;1.63;;;;;;;18.28;87.54;101715.16;4912818;29;20046;-74
2022/10/18 15:04:42;;;;;;;6.38;1.73;;;;;;;18.08;89.15;101734.13;4965208;28;20050;-74
2022/10/18 15:08:09;;;;;;;14.30;1.90;;;;;;;18.06;90.27;101721.00;4971810;28;20045;-74
2022/10/18 15:11:59;;;;;;;7.47;1.90;;;;;;;18.14;90.84;101731.09;4973047;28;20061;-74
2022/10/18 15:15:59;;;;;;;12.35;5.85;;;;;;;18.08;91.96;101729.69;4972670;28;20109;-74
2022/10/18 15:24:43;;;;;;;9.48;4.00;;;;;;;18.19;91.14;101718.41;4973066;28;20097;-74
2022/10/18 15:28:10;;;;;;;14.95;11.50;;;;;;;18.07;92.07;101721.84;4972591;28;20054;-74
2022/10/18 15:32:04;;;;;;;16.02;2.70;;;;;;;17.84;94.36;101720.69;4971765;28;20050;-74
2022/10/18 15:35:36;;;;;;;26.63;11.30;;;;;;;17.76;94.19;101726.44;4971375;28;20053;-74
2022/10/18 15:39:32;;;;;;;24.10;13.43;;;;;;;17.72;94.14;101713.50;4974533;28;20049;-74
2022/10/18 15:47:36;;;;;;;24.50;13.25;;;;;;;17.55;95.89;101719.84;4937756;29;20078;-74
2022/10/18 15:51:36;;;;;;;22.52;6.10;;;;;;;17.28;98.48;101723.25;4937522;29;20127;-74
2022/10/18 15:59:29;;;;;;;13.13;4.65;;;;;;;17.25;97.66;101723.44;4955212;28;20046;-74
2022/10/18 16:03:16;;;;;;;12.20;2.35;;;;;;;17.12;95.90;101714.56;4947936;29;20057;-74
2022/10/18 16:11:06;;;;;;;7.32;3.92;;;;;;;16.90;96.15;101715.84;4956501;29;20399;-75
2022/10/18 16:24:51;;;;;;;9.05;2.58;;;;;;;16.62;96.28;101729.81;4938809;28;20072;-74
2022/10/18 16:29:35;;;;;;;16.10;3.17;;;;;;;16.55;95.92;101743.47;4948501;29;20050;-75
2022/10/18 16:38:35;;;;;;;16.98;4.40;;;;;;;16.38;95.64;101744.44;4944162;28;20066;-74
2022/10/18 16:41:51;;;;;;;10.27;3.47;;;;;;;16.24;96.00;101742.56;4913622;29;20045;-74
2022/10/18 16:45:10;;;;;;;12.20;3.95;;;;;;;16.04;95.96;101757.75;4936101;29;20129;-74
2022/10/18 16:48:18;;;;;;;10.93;3.45;;;;;;;16.15;96.04;101758.94;4924965;29;20139;-74
2022/10/18 16:51:25;;;;;;;12.77;3.45;;;;;;;16.06;95.51;101762.09;4936501;29;20542;-74
2022/10/18 16:54:34;;;;;;;14.55;3.33;;;;;;;16.00;95.37;101758.84;4936676;29;20054;-74
2022/10/18 16:57:46;;;;;;;19.55;3.50;;;;;;;15.94;95.74;101766.25;4940535;28;20130;-74
2022/10/18 17:00:55;;;;;;;18.73;3.95;;;;;;;15.88;95.48;101775.34;4967254;28;20069;-74
2022/10/18 17:04:02;;;;;;;17.52;4.03;;;;;;;15.88;95.08;101774.50;4973491;28;20045;-74
2022/10/18 17:07:20;;;;;;;27.75;4.22;;;;;;;15.80;94.76;101782.84;4974915;28;20049;-74
2022/10/18 17:10:29;;;;;;;15.10;3.95;;;;;;;15.79;94.09;101783.75;4969099;28;20066;-74
2022/10/18 17:13:38;;;;;;;8.90;2.85;;;;;;;15.74;94.40;101777.91;4957296;28;20398;-74
2022/10/18 17:16:46;;;;;;;15.00;2.90;;;;;;;15.70;93.52;101782.50;4957559;28;20055;-74
2022/10/18 17:19:55;;;;;;;15.93;3.00;;;;;;;15.66;93.32;101787.97;4956711;28;20114;-74
2022/10/18 17:23:01;;;;;;;14.40;2.85;;;;;;;15.73;93.11;101777.06;4955133;29;20069;-74
2022/10/18 17:26:13;;;;;;;18.33;3.55;;;;;;;15.79;93.16;101792.56;4955109;28;20074;-74
2022/10/18 17:29:19;;;;;;;17.55;4.40;;;;;;;15.77;93.69;101798.84;4960808;28;20534;-74
2022/10/18 17:32:26;;;;;;;9.52;4.03;;;;;;;15.66;93.45;101802.00;4955122;29;20070;-74
2022/10/18 18:37:49;;;;;;;19.20;6.15;;;;;;;15.31;99.20;101831.03;4922286;29;20046;-74
2022/10/18 18:41:10;;;;;;;17.95;6.22;;;;;;;15.04;99.84;101824.56;4936453;29;20074;-74
2022/10/18 18:44:20;;;;;;;20.52;7.43;;;;;;;15.24;98.80;101821.75;4934846;29;20046;-73
2022/10/18 18:47:28;;;;;;;17.20;5.63;;;;;;;15.22;98.00;101828.03;4926073;29;20039;-74
2022/10/18 18:50:39;;;;;;;12.43;6.20;;;;;;;15.37;97.55;101829.88;4934979;29;20420;-74
2022/10/18 18:53:46;;;;;;;12.77;6.40;;;;;;;15.29;98.35;101821.53;4944391;28;20407;-73
2022/10/18 18:56:51;;;;;;;15.90;7.65;;;;;;;15.20;98.69;101832.53;4928728;29;20114;-74
2022/10/18 18:59:57;;;;;;;10.75;6.20;;;;;;;15.14;98.49;101835.50;4934875;29;20211;-74
2022/10/18 19:03:04;;;;;;;11.20;6.00;;;;;;;15.19;97.58;101838.72;4936588;28;20098;-74
2022/10/18 19:06:14;;;;;;;14.73;5.20;;;;;;;15.13;98.12;101833.78;4934734;29;20051;-74
2022/10/18 19:09:21;;;;;;;6.38;4.85;;;;;;;15.01;98.31;101838.72;4937167;29;20450;-74